1940 Tropical Low NOT_NAMED (1940063S16154)


IBTrACS version v04r00. Visit IBTrACS website for data access.
Please direct all questions to the IBTrACS Q and A forum

Storm track - Intensity - Wind Radii - Intensity Data - Source Data - All data

Summary Information

Storm ID 1940063S16154
Start Mar 2 23Z
Landfall Mar 6 11Z
Max Intensity 30 kt (Mar 5 00Z)
End Mar 7 23Z
ATCF IDs
Track status Best track data.

Storm track plot

Map of storm track

Intensity plots

Map of storm track

Radial wind information

No radial wind information for this storm


Position and Intensity Table

BASIN ISO_TIME_________ NATURE LAT LON WMO PRES BOM PRES DS824 WIND DS824 PRES
degrees north degrees east mb mb kts mb
SP 1940-03-02 23:00:00 NR -15.55 154.30 1006 1006
SP 1940-03-03 00:00:00 TS -14.98 153.64 15 1006
SP 03:00:00 TS -14.74 153.02
SP 06:00:00 TS -14.57 152.47
SP 09:00:00 TS -14.37 151.89
SP 11:00:00 TS -14.31 151.56
SP 12:00:00 TS -14.28 151.40
SP 15:00:00 TS -14.19 150.92
SP 18:00:00 TS -14.11 150.47
SP 21:00:00 TS -14.05 150.08
SP 23:00:00 TS -14.03 149.88 1006 1006
SP 1940-03-04 00:00:00 TS -14.02 149.81 15 1006
SP 03:00:00 TS -14.03 149.65
SP 06:00:00 TS -14.05 149.56
SP 09:00:00 TS -14.08 149.51
SP 11:00:00 TS -14.10 149.48
SP 12:00:00 TS -14.09 149.45
SP 15:00:00 TS -14.09 149.36
SP 18:00:00 TS -14.07 149.25
SP 21:00:00 TS -14.07 149.12
SP 23:00:00 TS -14.07 149.02 1000 1000
SP 1940-03-05 00:00:00 TS -14.07 148.96 30 1000
SP 03:00:00 TS -14.07 148.77
SP 06:00:00 TS -14.07 148.56
SP 09:00:00 TS -14.09 148.32
SP 11:00:00 TS -14.10 148.15
SP 12:00:00 TS -14.10 148.07
SP 15:00:00 TS -14.13 147.82
SP 18:00:00 TS -14.17 147.55
SP 21:00:00 TS -14.23 147.22
SP 23:00:00 TS -14.29 146.98 1002 1002
SP 1940-03-06 00:00:00 TS -14.32 146.84 25 1002
SP 03:00:00 TS -14.42 146.38
SP 06:00:00 TS -14.55 145.88
SP 09:00:00 TS -14.71 145.34
SP 10:00:00 TS -14.77 145.16
SP 11:00:00 TS -14.83 144.97
SP 12:00:00 TS -14.89 144.79
SP 15:00:00 TS -15.11 144.24
SP 18:00:00 TS -15.34 143.70
SP 21:00:00 TS -15.55 143.19
SP 23:00:00 TS -15.68 142.89 1006 1006
SP 1940-03-07 00:00:00 TS -15.72 142.78 15 1006
SP 03:00:00 TS -15.84 142.37
SP 06:00:00 TS -15.94 141.99
SP 09:00:00 TS -16.02 141.64
SP 12:00:00 TS -16.10 141.30
SP 15:00:00 NR -16.20 140.95
SP 18:00:00 NR -16.30 140.60
SP 21:00:00 NR -16.42 140.24
SP 23:00:00 NR -16.50 140.00 1006 1006

Source Information

Agency Information
USA
TOKYO
CMA
HKO
NEWDELHI
REUNION
BOM IDCKMSTM0S.csv:Line=1030:unnamed
NADI
WELLINGTON
DS824 aus_area.dat:102:NOT NAMED
TD9636 cons_worldwide_trop_cyclone_18710101-19891231-006:Line=2351
TD9635
NEUMANN
MLC

All available IBTrACS Data

SEASON BASIN SUBBASIN ISO_TIME_________ NATURE LAT LON WMO PRES WMO AGENCY DIST2LAND LANDFALL IFLAG USA SSHS BOM LAT BOM LON BOM PRES BOM PRES_METHOD DS824 LAT DS824 LON DS824 STAGE DS824 WIND DS824 PRES TD9636 LAT TD9636 LON TD9636 STAGE STORM SPEED STORM DIR
Year degrees north degrees east mb km km 1 degrees north degrees east mb degrees north degrees east kts mb degrees north degrees east kts degrees
1940 SP EA 1940-03-02 23:00:00 NR -15.55 154.30 1006 bom 673 599 ______O___O___ -1 -13.00 151.90 1006 -18.10 156.70 7 51 312
1940 SP EA 1940-03-03 00:00:00 TS -14.98 153.64 584 522 ______P__OP___ -1 -13.05 151.81 -13.00 151.80 TC 15 1006 -17.91 156.40 7 22 303
1940 SP EA 03:00:00 TS -14.74 153.02 522 488 ______P__PP___ -1 -13.19 151.53 -13.14 151.54 TC -17.35 155.50 7 12 290
1940 SP EA 06:00:00 TS -14.57 152.47 488 445 ______P__PP___ -1 -13.32 151.25 -13.28 151.28 TC -16.80 154.59 7 12 288
1940 SP EA 09:00:00 TS -14.37 151.89 445 423 ______P__PP___ -1 -13.45 150.99 -13.41 151.03 TC -16.25 153.65 7 11 287
1940 SP EA 11:00:00 TS -14.31 151.56 423 417 ______P__PO___ -1 -13.54 150.82 -13.50 150.87 TC -15.90 153.00 7 10 281
1940 SP EA 12:00:00 TS -14.28 151.40 417 395 ______P__PP___ -1 -13.58 150.74 -13.54 150.79 TC -15.73 152.67 7 10 281
1940 SP EA 15:00:00 TS -14.19 150.92 395 380 ______P__PP___ -1 -13.69 150.51 -13.65 150.56 TC -15.23 151.68 7 9 281
1940 SP EA 18:00:00 TS -14.11 150.47 380 380 ______P__PP___ -1 -13.78 150.29 -13.75 150.35 TC -14.80 150.75 7 8 280
1940 SP EA 21:00:00 TS -14.05 150.08 380 369 ______P__PP___ -1 -13.86 150.11 -13.83 150.17 TC -14.46 149.98 7 7 278
1940 SP EA 23:00:00 TS -14.03 149.88 1006 bom 370 370 ______O__PO___ -1 -13.90 150.00 1006 -13.88 150.05 TC -14.30 149.60 7 5 276
1940 SP EA 1940-03-04 00:00:00 TS -14.02 149.81 372 372 ______P__OP___ -1 -13.92 149.95 -13.90 150.00 TC 15 1006 -14.25 149.47 7 3 270
1940 SP EA 03:00:00 TS -14.03 149.65 375 375 ______P__PP___ -1 -13.96 149.82 -13.95 149.86 TC -14.18 149.26 7 2 263
1940 SP EA 06:00:00 TS -14.05 149.56 386 386 ______P__PP___ -1 -13.98 149.72 -13.97 149.74 TC -14.20 149.23 7 1 248
1940 SP EA 09:00:00 TS -14.08 149.51 388 388 ______P__PP___ -1 -13.99 149.62 -13.99 149.63 TC -14.26 149.28 7 1 243
1940 SP EA 11:00:00 TS -14.10 149.48 388 388 ______P__PO___ -1 -13.99 149.56 -13.99 149.56 TC -14.30 149.30 7 1 256
1940 SP EA 12:00:00 TS -14.09 149.45 390 390 ______P__PP___ -1 -13.99 149.53 -13.99 149.53 TC -14.29 149.28 7 2 275
1940 SP EA 15:00:00 TS -14.09 149.36 390 390 ______P__PP___ -1 -13.99 149.44 -13.99 149.42 TC -14.27 149.21 7 2 276
1940 SP EA 18:00:00 TS -14.07 149.25 393 393 ______P__PP___ -1 -13.99 149.33 -13.99 149.30 TC -14.24 149.12 7 2 275
1940 SP EA 21:00:00 TS -14.07 149.12 399 399 ______P__PP___ -1 -13.99 149.20 -13.99 149.17 TC -14.21 149.00 7 3 272
1940 SP EA 23:00:00 TS -14.07 149.02 1000 bom 402 402 ______O__PO___ -1 -14.00 149.10 1000 -14.00 149.06 TC -14.20 148.90 7 3 270
1940 SP EA 1940-03-05 00:00:00 TS -14.07 148.96 402 389 ______P__OP___ -1 -14.00 149.05 -14.00 149.00 TC 30 1000 -14.20 148.84 7 4 270
1940 SP EA 03:00:00 TS -14.07 148.77 389 369 ______P__PP___ -1 -14.01 148.89 -14.01 148.81 TC -14.19 148.61 7 4 269
1940 SP EA 06:00:00 TS -14.07 148.56 369 338 ______P__PP___ -1 -14.02 148.71 -14.01 148.61 TC -14.19 148.35 7 4 268
1940 SP EA 09:00:00 TS -14.09 148.32 338 328 ______P__PP___ -1 -14.04 148.50 -14.03 148.38 TC -14.19 148.08 7 5 266
1940 SP EA 11:00:00 TS -14.10 148.15 328 317 ______P__PO___ -1 -14.05 148.34 -14.04 148.21 TC -14.20 147.90 7 5 265
1940 SP EA 12:00:00 TS -14.10 148.07 317 287 ______P__PP___ -1 -14.06 148.26 -14.05 148.12 TC -14.20 147.84 7 5 264
1940 SP EA 15:00:00 TS -14.13 147.82 287 263 ______P__PP___ -1 -14.10 147.98 -14.09 147.84 TC -14.21 147.65 7 5 262
1940 SP EA 18:00:00 TS -14.17 147.55 253 223 ______P__PP___ -1 -14.16 147.66 -14.14 147.53 TC -14.23 147.46 7 6 260
1940 SP EA 21:00:00 TS -14.23 147.22 223 199 ______P__PP___ -1 -14.24 147.28 -14.21 147.18 TC -14.26 147.21 7 7 258
1940 SP EA 23:00:00 TS -14.29 146.98 1002 bom 199 189 ______O__PO___ -1 -14.30 147.00 1002 4 -14.27 146.93 TC -14.30 147.00 7 8 258
1940 SP EA 1940-03-06 00:00:00 TS -14.32 146.84 179 136 ______P__OP___ -1 -14.33 146.85 -14.30 146.80 TC 25 1002 -14.32 146.88 7 9 257
1940 SP EA 03:00:00 TS -14.42 146.38 136 85 ______P__PP___ -1 -14.45 146.35 -14.44 146.36 TC -14.38 146.44 7 10 256
1940 SP EA 06:00:00 TS -14.55 145.88 78 31 ______P__PP___ -1 -14.58 145.82 -14.61 145.87 TC -14.47 145.94 7 11 254
1940 SP EA 09:00:00 TS -14.71 145.34 24 11 ______P__PP___ -1 -14.74 145.28 -14.80 145.35 TC -14.59 145.38 7 11 253
1940 SP EA 10:00:00 TS -14.77 145.16 bom 11 0 ______O__PP___ -1 -14.80 145.10 -14.86 145.18 TC -14.64 145.19 7 11 251
1940 SP EA 11:00:00 TS -14.83 144.97 0 0 ______P__PO___ -1 -14.86 144.92 -14.92 145.00 TC -14.70 145.00 7 11 250
1940 SP EA 12:00:00 TS -14.89 144.79 0 0 ______P__PP___ -1 -14.93 144.75 -14.99 144.82 TC -14.76 144.81 7 11 249
1940 SP EA 15:00:00 TS -15.11 144.24 0 0 ______P__PP___ -1 -15.15 144.21 -15.18 144.29 TC -14.98 144.21 7 11 247
1940 SP EA 18:00:00 TS -15.34 143.70 0 0 ______P__PP___ -1 -15.37 143.70 -15.37 143.77 TC -15.24 143.61 7 11 246
1940 SP EA 21:00:00 TS -15.55 143.19 0 0 ______P__PP___ -1 -15.58 143.21 -15.55 143.26 TC -15.51 143.01 7 10 246
1940 SP EA 23:00:00 TS -15.68 142.89 1006 bom 0 0 ______O__PO___ -1 -15.70 142.90 1006 -15.65 142.95 TC -15.70 142.60 7 9 247
1940 SP EA 1940-03-07 00:00:00 TS -15.72 142.78 0 0 ______P__O____ -1 -15.75 142.76 -15.70 142.80 TC 15 1006 7 8 252
1940 SP EA 03:00:00 TS -15.84 142.37 0 0 ______P__P____ -1 -15.86 142.36 -15.83 142.38 TC 7 8 254
1940 SP EA 06:00:00 TS -15.94 141.99 0 0 ______P__P____ -1 -15.94 141.99 -15.93 142.00 TC 7 7 256
1940 SP EA 09:00:00 TS -16.02 141.64 0 0 ______P__P____ -1 -16.02 141.64 -16.02 141.64 TC 7 7 256
1940 SP EA 12:00:00 TS -16.10 141.30 bom 10 10 ______O__O____ -1 -16.10 141.30 -16.10 141.30 TC 7 255
1940 SP EA 15:00:00 NR -16.20 140.95 39 39 ______P_______ -1 -16.20 140.95 TC 7 253
1940 SP EA 18:00:00 NR -16.30 140.60 75 75 ______P_______ -1 -16.30 140.60 TC 7 252
1940 SP EA 21:00:00 NR -16.42 140.24 108 101 ______P_______ -1 -16.42 140.24 TC 7 251
1940 SP EA 23:00:00 NR -16.50 140.00 1006 bom 101 ______O_______ -1 -16.50 140.00 1006 TC 7 251